Time;durP1;ratioP1;P1;durP2;ratioP2;P2;SDS_P1;SDS_P2;PMS_P1;PMS_P2;Temp;Humidity;BMP_temperature;BMP_pressure;BME280_temperature;BME280_humidity;BME280_pressure;Samples;Min_cycle;Max_cycle;Signal;HPM_P1;HPM_P2
2024/02/17 00:00:30;;;;;;;25.02;12.88;;;11.50;89.70;;;;;;9176975;19;20034;-68
2024/02/17 00:03:40;;;;;;;27.80;13.80;;;11.40;89.10;;;;;;9178893;19;20023;-68
2024/02/17 00:06:46;;;;;;;31.33;14.40;;;11.30;89.40;;;;;;9178038;19;20006;-68
2024/02/17 00:09:53;;;;;;;31.42;13.63;;;11.40;89.20;;;;;;9178439;19;20018;-69
2024/02/17 00:12:59;;;;;;;29.25;13.93;;;11.40;89.40;;;;;;9176125;19;20015;-68
2024/02/17 00:16:09;;;;;;;26.90;12.95;;;11.30;88.90;;;;;;9177740;19;20074;-68
2024/02/17 00:19:18;;;;;;;33.70;13.73;;;11.30;89.10;;;;;;9177543;19;20026;-68
2024/02/17 00:22:25;;;;;;;35.95;13.82;;;11.30;89.30;;;;;;9177240;19;20025;-69
2024/02/17 00:25:31;;;;;;;28.58;14.27;;;11.30;89.40;;;;;;9172301;19;20424;-68
2024/02/17 00:28:38;;;;;;;30.40;13.27;;;11.30;89.20;;;;;;9176740;19;20029;-68
2024/02/17 00:31:43;;;;;;;33.22;14.02;;;11.30;89.30;;;;;;9176102;19;20023;-68
2024/02/17 00:34:54;;;;;;;29.15;13.45;;;11.30;89.40;;;;;;9176423;19;20373;-68
2024/02/17 00:37:59;;;;;;;30.60;13.70;;;11.20;89.40;;;;;;9177295;19;20030;-68
2024/02/17 00:41:07;;;;;;;27.35;12.57;;;11.20;89.40;;;;;;9175082;19;20010;-68
2024/02/17 00:44:12;;;;;;;34.05;14.75;;;11.30;89.80;;;;;;9175627;19;20538;-68
2024/02/17 00:47:20;;;;;;;30.95;13.93;;;11.20;89.40;;;;;;9176984;19;20365;-68
2024/02/17 00:50:28;;;;;;;33.83;14.90;;;11.40;89.80;;;;;;9176485;19;20047;-68
2024/02/17 00:53:42;;;;;;;37.03;14.80;;;11.20;90.20;;;;;;9173956;19;20018;-68
2024/02/17 00:56:47;;;;;;;34.33;13.50;;;11.10;89.50;;;;;;9175567;19;20338;-68
2024/02/17 00:59:55;;;;;;;35.20;14.70;;;11.10;89.50;;;;;;9176662;19;20018;-68
2024/02/17 01:03:00;;;;;;;28.02;13.35;;;11.10;90.00;;;;;;9176061;19;20010;-68
2024/02/17 01:06:11;;;;;;;30.75;13.65;;;11.10;89.60;;;;;;9174978;19;20055;-68
2024/02/17 01:09:17;;;;;;;25.63;13.95;;;11.10;89.60;;;;;;9173836;19;20052;-68
2024/02/17 01:12:27;;;;;;;27.67;13.57;;;11.10;89.60;;;;;;9175063;19;20006;-69
2024/02/17 01:15:32;;;;;;;35.92;14.57;;;11.10;89.90;;;;;;9175261;19;20037;-68
2024/02/17 01:18:40;;;;;;;28.60;13.60;;;11.10;89.70;;;;;;9175613;19;20014;-68
2024/02/17 01:21:48;;;;;;;29.38;14.15;;;11.00;89.50;;;;;;9175334;19;20014;-68
2024/02/17 01:24:56;;;;;;;32.75;13.60;;;11.00;89.80;;;;;;9175100;19;20018;-68
2024/02/17 01:28:02;;;;;;;26.95;13.15;;;11.00;89.60;;;;;;9172792;19;20439;-68
2024/02/17 01:31:09;;;;;;;32.45;13.65;;;11.10;90.00;;;;;;9175358;19;20086;-69
2024/02/17 01:34:15;;;;;;;28.10;14.10;;;11.10;89.50;;;;;;9175840;19;20924;-68
2024/02/17 01:37:25;;;;;;;27.58;12.77;;;11.00;89.70;;;;;;9172330;19;20026;-69
2024/02/17 01:40:32;;;;;;;24.55;13.10;;;11.10;90.00;;;;;;9176140;19;20330;-68
2024/02/17 01:43:39;;;;;;;28.02;13.65;;;11.00;90.00;;;;;;9174927;19;20018;-68
2024/02/17 01:46:45;;;;;;;28.83;12.82;;;11.00;89.80;;;;;;9174213;19;20010;-68
2024/02/17 01:49:53;;;;;;;33.03;14.00;;;11.00;89.60;;;;;;9174316;19;20010;-68
2024/02/17 01:53:03;;;;;;;22.30;12.45;;;11.00;89.70;;;;;;9174155;19;20011;-68
2024/02/17 01:56:13;;;;;;;26.63;12.75;;;11.00;90.00;;;;;;9174461;19;20022;-68
2024/02/17 01:59:19;;;;;;;23.55;12.00;;;11.00;90.00;;;;;;9173960;19;20018;-68
2024/02/17 02:02:48;;;;;;;28.65;12.95;;;11.00;90.00;;;;;;9173763;19;20023;-70
2024/02/17 02:05:53;;;;;;;32.80;13.07;;;11.00;90.00;;;;;;9174178;19;20014;-68
2024/02/17 02:09:03;;;;;;;37.20;15.20;;;10.90;90.00;;;;;;9171216;19;20022;-68
2024/02/17 02:12:09;;;;;;;24.88;12.07;;;10.90;89.70;;;;;;9173360;19;20011;-68
2024/02/17 02:15:17;;;;;;;23.15;13.00;;;10.90;89.70;;;;;;9173190;19;20013;-68
2024/02/17 02:18:23;;;;;;;31.70;12.82;;;10.90;89.60;;;;;;9174067;19;20014;-69
2024/02/17 02:21:31;;;;;;;34.40;13.25;;;10.90;90.10;;;;;;9173252;19;20015;-68
2024/02/17 02:24:40;;;;;;;26.63;13.25;;;10.90;90.20;;;;;;9176507;19;20025;-68
2024/02/17 02:27:50;;;;;;;28.05;12.95;;;10.90;89.90;;;;;;9177874;19;20024;-68
2024/02/17 02:30:59;;;;;;;28.05;13.60;;;10.90;89.90;;;;;;9182813;19;20042;-68
2024/02/17 02:34:06;;;;;;;40.60;15.55;;;10.90;90.00;;;;;;9179598;19;20018;-68
2024/02/17 02:37:12;;;;;;;31.70;13.82;;;10.90;90.10;;;;;;9182003;19;20023;-68
2024/02/17 02:40:20;;;;;;;33.28;15.10;;;10.90;89.80;;;;;;9181798;19;20018;-68
2024/02/17 02:43:29;;;;;;;33.72;16.15;;;10.90;90.00;;;;;;9182090;19;20019;-68
2024/02/17 02:46:36;;;;;;;27.52;15.20;;;10.90;89.90;;;;;;9180721;19;20022;-68
2024/02/17 02:49:42;;;;;;;29.25;16.25;;;10.90;90.00;;;;;;9181444;19;20038;-68
2024/02/17 02:52:56;;;;;;;32.55;16.23;;;10.90;89.80;;;;;;9180673;19;20022;-69
2024/02/17 02:56:01;;;;;;;35.08;16.98;;;10.90;90.00;;;;;;9181314;19;20010;-68
2024/02/17 02:59:12;;;;;;;35.13;16.35;;;10.90;89.90;;;;;;9180683;19;20015;-68
2024/02/17 03:02:17;;;;;;;36.67;16.92;;;10.90;90.00;;;;;;9182318;19;20929;-70
2024/02/17 03:05:26;;;;;;;37.92;17.83;;;10.90;90.10;;;;;;9182502;19;20010;-70
2024/02/17 03:08:31;;;;;;;29.23;16.23;;;11.00;90.00;;;;;;9179530;19;20144;-68
2024/02/17 03:11:39;;;;;;;34.53;17.15;;;10.90;90.00;;;;;;9180888;19;20010;-68
2024/02/17 03:14:47;;;;;;;30.48;16.63;;;10.90;89.90;;;;;;9178516;19;20010;-69
2024/02/17 03:17:55;;;;;;;30.52;17.08;;;11.00;90.10;;;;;;9180421;19;20014;-69
2024/02/17 03:21:01;;;;;;;38.08;18.15;;;10.90;90.20;;;;;;9181045;19;20476;-69
2024/02/17 03:24:10;;;;;;;35.88;17.80;;;10.90;90.20;;;;;;9180056;19;20014;-68
2024/02/17 03:27:16;;;;;;;39.08;18.33;;;10.90;90.10;;;;;;9176228;19;20476;-70
2024/02/17 03:30:26;;;;;;;40.35;18.17;;;10.90;90.20;;;;;;9175928;19;20011;-68
2024/02/17 03:33:32;;;;;;;31.80;17.63;;;11.00;90.10;;;;;;9178580;19;20113;-69
2024/02/17 03:36:39;;;;;;;39.97;18.67;;;10.90;90.00;;;;;;9176603;19;20018;-68
2024/02/17 03:39:45;;;;;;;36.05;18.30;;;10.90;90.00;;;;;;9178826;19;20014;-68
2024/02/17 03:42:53;;;;;;;37.35;17.98;;;11.00;90.10;;;;;;9179106;19;20026;-68
2024/02/17 03:46:01;;;;;;;34.85;17.00;;;10.90;90.00;;;;;;9179032;19;20018;-68
2024/02/17 03:49:09;;;;;;;39.30;18.17;;;10.90;90.10;;;;;;9177634;19;20025;-68
2024/02/17 03:52:15;;;;;;;42.60;17.13;;;11.00;90.00;;;;;;9178753;19;20014;-69
2024/02/17 03:55:23;;;;;;;34.30;16.77;;;11.00;90.10;;;;;;9174004;19;20018;-68
2024/02/17 03:58:28;;;;;;;37.20;18.20;;;10.90;90.00;;;;;;9178428;19;20023;-70
2024/02/17 04:01:40;;;;;;;36.35;17.77;;;10.90;90.00;;;;;;9177950;19;20479;-71
2024/02/17 04:04:46;;;;;;;33.35;18.02;;;10.90;90.00;;;;;;9177953;19;20018;-69
2024/02/17 04:07:53;;;;;;;45.40;18.80;;;10.90;90.10;;;;;;9177689;19;20018;-68
2024/02/17 04:11:00;;;;;;;35.85;17.90;;;11.10;90.20;;;;;;9178485;19;20011;-69
2024/02/17 04:14:08;;;;;;;38.28;19.00;;;10.90;90.20;;;;;;9176824;19;20632;-68
2024/02/17 04:17:16;;;;;;;43.42;17.73;;;10.90;90.20;;;;;;9178376;19;20014;-68
2024/02/17 04:20:24;;;;;;;42.20;18.25;;;10.90;90.10;;;;;;9177402;19;20796;-68
2024/02/17 04:23:30;;;;;;;33.30;18.20;;;10.90;90.10;;;;;;9177521;19;20018;-68
2024/02/17 04:26:37;;;;;;;40.70;18.73;;;10.90;90.20;;;;;;9172837;19;20025;-68
2024/02/17 04:29:43;;;;;;;34.33;17.13;;;10.90;90.20;;;;;;9177501;19;20504;-68
2024/02/17 04:32:53;;;;;;;38.83;18.83;;;10.90;90.20;;;;;;9177434;19;20024;-68
2024/02/17 04:35:59;;;;;;;43.03;17.83;;;10.90;90.20;;;;;;9177888;19;20461;-68
2024/02/17 04:39:06;;;;;;;32.33;16.60;;;10.90;90.20;;;;;;9176722;19;20014;-68
2024/02/17 04:42:12;;;;;;;39.83;17.90;;;11.00;90.20;;;;;;9176833;19;20074;-68
2024/02/17 04:45:19;;;;;;;35.70;17.42;;;10.90;90.10;;;;;;9176423;19;20025;-68
2024/02/17 04:48:28;;;;;;;39.42;17.60;;;10.80;90.10;;;;;;9176099;19;20025;-68
2024/02/17 04:51:35;;;;;;;29.95;16.98;;;10.80;90.20;;;;;;9176946;19;20022;-68
2024/02/17 04:54:41;;;;;;;34.20;16.35;;;10.80;90.20;;;;;;9173449;19;20013;-68
2024/02/17 04:57:49;;;;;;;37.03;17.05;;;10.90;90.10;;;;;;9176176;19;20396;-70
2024/02/17 05:00:54;;;;;;;35.42;17.70;;;10.80;90.10;;;;;;9175989;19;20568;-68
2024/02/17 05:04:07;;;;;;;36.03;16.25;;;10.80;90.30;;;;;;9173914;19;20015;-68
2024/02/17 05:07:13;;;;;;;37.80;16.88;;;10.80;90.10;;;;;;9175059;19;20078;-69
2024/02/17 05:10:21;;;;;;;32.35;16.73;;;10.80;90.10;;;;;;9176263;19;20542;-68
2024/02/17 05:13:26;;;;;;;30.38;16.02;;;10.80;90.20;;;;;;9175435;19;20074;-68
2024/02/17 05:16:35;;;;;;;40.58;17.55;;;10.90;90.20;;;;;;9175844;19;20598;-68
2024/02/17 05:19:43;;;;;;;42.05;17.00;;;10.80;90.10;;;;;;9175377;19;20014;-68
2024/02/17 05:22:50;;;;;;;41.22;16.63;;;10.80;90.10;;;;;;9173951;19;20006;-68
2024/02/17 05:25:57;;;;;;;33.95;15.70;;;10.80;90.20;;;;;;9171129;19;20010;-68
2024/02/17 05:29:06;;;;;;;38.47;16.45;;;10.90;90.20;;;;;;9174732;19;20081;-69
2024/02/17 05:32:12;;;;;;;31.98;16.15;;;10.80;90.10;;;;;;9175392;19;20050;-69
2024/02/17 05:35:22;;;;;;;39.20;16.17;;;10.90;90.20;;;;;;9172728;19;20022;-68
2024/02/17 05:38:27;;;;;;;35.58;16.92;;;10.80;90.10;;;;;;9174925;19;20058;-68
2024/02/17 05:41:35;;;;;;;35.42;17.30;;;10.90;90.20;;;;;;9173413;19;20026;-68
2024/02/17 05:44:40;;;;;;;37.85;15.70;;;10.80;90.20;;;;;;9174225;19;20044;-68
2024/02/17 05:47:48;;;;;;;31.55;15.63;;;10.80;90.10;;;;;;9174844;19;20633;-68
2024/02/17 05:50:58;;;;;;;37.97;17.33;;;10.90;90.10;;;;;;9174975;19;20014;-68
2024/02/17 05:54:07;;;;;;;36.45;16.42;;;10.80;90.20;;;;;;9173331;19;20018;-68
2024/02/17 05:57:12;;;;;;;35.53;15.55;;;10.90;90.20;;;;;;9174435;19;20010;-68
2024/02/17 06:00:20;;;;;;;38.70;16.60;;;10.90;90.20;;;;;;9181430;19;20018;-68
2024/02/17 06:03:26;;;;;;;36.97;16.95;;;10.80;90.20;;;;;;9183847;19;20022;-68
2024/02/17 06:06:36;;;;;;;37.25;16.63;;;10.90;90.30;;;;;;9182840;19;20019;-68
2024/02/17 06:09:42;;;;;;;31.52;15.30;;;10.90;90.10;;;;;;9183360;19;20029;-69
2024/02/17 06:12:50;;;;;;;33.42;16.17;;;10.90;90.20;;;;;;9183595;19;20011;-68
2024/02/17 06:15:56;;;;;;;33.53;15.02;;;11.00;90.30;;;;;;9180072;19;20373;-68
2024/02/17 06:22:24;;;;;;;28.15;14.88;;;11.00;90.30;;;;;;9182590;19;20082;-68
2024/02/17 06:25:32;;;;;;;38.42;16.27;;;11.00;90.20;;;;;;9175303;19;20010;-68
2024/02/17 06:28:37;;;;;;;28.40;15.38;;;10.90;90.10;;;;;;9181645;19;20630;-68
2024/02/17 06:31:46;;;;;;;33.78;15.10;;;10.90;90.10;;;;;;9182023;19;20639;-68
2024/02/17 06:34:51;;;;;;;32.75;14.25;;;10.90;90.10;;;;;;9180095;19;20038;-68
2024/02/17 06:38:01;;;;;;;30.15;14.60;;;10.90;90.10;;;;;;9180362;19;20342;-69
2024/02/17 06:41:07;;;;;;;37.40;15.13;;;10.90;90.20;;;;;;9182487;19;20022;-72
2024/02/17 06:44:14;;;;;;;30.05;13.90;;;10.90;90.20;;;;;;9179313;19;20361;-68
2024/02/17 06:47:20;;;;;;;33.50;14.07;;;10.90;90.10;;;;;;9181263;19;20015;-68
2024/02/17 06:50:28;;;;;;;29.52;13.10;;;10.90;90.10;;;;;;9180641;19;20358;-68
2024/02/17 06:53:36;;;;;;;23.92;13.07;;;10.90;90.20;;;;;;9178549;19;20360;-68
2024/02/17 06:56:44;;;;;;;26.92;13.30;;;11.00;90.20;;;;;;9174616;19;20029;-68
2024/02/17 06:59:49;;;;;;;30.10;12.45;;;11.00;90.20;;;;;;9176973;19;20070;-68
2024/02/17 07:02:57;;;;;;;22.30;12.20;;;10.90;90.30;;;;;;9178093;19;20026;-68
2024/02/17 07:06:02;;;;;;;30.52;12.70;;;11.00;90.30;;;;;;9177803;19;20449;-68
2024/02/17 07:09:18;;;;;;;30.95;13.15;;;10.90;90.10;;;;;;9173963;19;20018;-68
2024/02/17 07:12:24;;;;;;;27.77;12.20;;;10.90;90.20;;;;;;9177918;19;20466;-68
2024/02/17 07:15:32;;;;;;;31.60;12.93;;;10.90;90.20;;;;;;9176009;19;20011;-68
2024/02/17 07:18:39;;;;;;;28.17;12.13;;;10.90;90.30;;;;;;9177214;19;20037;-68
2024/02/17 07:21:46;;;;;;;25.92;12.45;;;10.90;90.20;;;;;;9178080;19;20026;-68
2024/02/17 07:24:54;;;;;;;33.55;13.25;;;11.00;90.30;;;;;;9175706;19;20384;-68
2024/02/17 07:28:02;;;;;;;24.17;12.68;;;11.00;90.40;;;;;;9175242;19;20015;-68
2024/02/17 07:31:10;;;;;;;30.77;12.93;;;11.00;90.30;;;;;;9176605;19;20049;-68
2024/02/17 07:34:18;;;;;;;30.67;12.05;;;11.00;90.20;;;;;;9176817;19;20022;-68
2024/02/17 07:37:23;;;;;;;28.27;12.70;;;11.00;90.30;;;;;;9171666;19;20021;-68
2024/02/17 07:40:33;;;;;;;38.63;13.45;;;11.00;90.30;;;;;;9176673;19;20022;-68
2024/02/17 07:43:39;;;;;;;25.27;11.05;;;11.00;90.30;;;;;;9177417;19;20030;-68
2024/02/17 07:46:48;;;;;;;25.17;10.70;;;11.00;90.20;;;;;;9176950;19;20019;-68
2024/02/17 07:49:54;;;;;;;28.75;11.52;;;11.00;90.30;;;;;;9032975;19;2790854;-68
2024/02/17 07:53:02;;;;;;;30.15;12.00;;;11.00;90.20;;;;;;9180017;19;20025;-68
2024/02/17 07:56:13;;;;;;;23.50;10.85;;;11.00;90.30;;;;;;9178458;19;20015;-68
2024/02/17 07:59:20;;;;;;;28.83;11.00;;;11.00;90.20;;;;;;9179050;19;20361;-68
2024/02/17 08:02:26;;;;;;;21.20;10.35;;;11.00;90.20;;;;;;9179695;19;20010;-68
2024/02/17 08:05:34;;;;;;;26.65;10.90;;;11.10;90.40;;;;;;9179335;19;20424;-68
2024/02/17 08:08:41;;;;;;;25.77;10.93;;;11.00;90.40;;;;;;9175649;19;20719;-68
2024/02/17 08:11:54;;;;;;;21.67;10.55;;;11.00;90.20;;;;;;9177971;19;20360;-69
2024/02/17 08:15:00;;;;;;;20.20;10.90;;;11.00;90.30;;;;;;9178087;19;20014;-68
2024/02/17 08:18:08;;;;;;;24.58;11.15;;;11.00;90.20;;;;;;9178472;19;20019;-68
2024/02/17 08:21:15;;;;;;;28.70;11.93;;;11.00;90.20;;;;;;9176523;19;20015;-68
2024/02/17 08:24:23;;;;;;;25.33;10.80;;;11.10;90.20;;;;;;9177970;19;20014;-68
2024/02/17 08:27:31;;;;;;;33.58;11.70;;;11.00;90.20;;;;;;9174420;19;20019;-68
2024/02/17 08:30:39;;;;;;;24.00;11.80;;;11.00;90.20;;;;;;9177103;19;20033;-68
2024/02/17 08:33:45;;;;;;;31.95;12.35;;;11.10;90.20;;;;;;9176852;19;20021;-68
2024/02/17 08:36:52;;;;;;;30.92;12.55;;;11.00;90.10;;;;;;9175639;19;20357;-68
2024/02/17 08:39:58;;;;;;;23.45;11.18;;;11.10;90.30;;;;;;9174685;19;20120;-68
2024/02/17 08:43:08;;;;;;;30.27;12.25;;;11.10;90.30;;;;;;9176107;19;20014;-68
2024/02/17 08:46:14;;;;;;;26.63;12.27;;;11.10;90.30;;;;;;9174487;19;20014;-69
2024/02/17 08:49:21;;;;;;;33.75;12.95;;;11.10;90.40;;;;;;9175932;19;20453;-69
2024/02/17 08:52:27;;;;;;;27.40;11.45;;;11.50;90.50;;;;;;9177032;19;20018;-69
2024/02/17 08:55:34;;;;;;;22.00;10.57;;;11.10;90.20;;;;;;9176017;19;20025;-69
2024/02/17 08:58:42;;;;;;;23.77;11.05;;;11.10;90.20;;;;;;9176600;19;20477;-70
2024/02/17 09:01:50;;;;;;;18.33;10.05;;;11.10;90.20;;;;;;9178733;19;20018;-68
2024/02/17 09:04:56;;;;;;;21.23;10.63;;;11.10;90.30;;;;;;9177745;19;20018;-70
2024/02/17 09:08:03;;;;;;;32.22;10.98;;;11.10;90.30;;;;;;9176020;19;20014;-70
2024/02/17 09:11:09;;;;;;;23.15;11.40;;;11.10;90.20;;;;;;9176364;19;20071;-68
2024/02/17 09:14:19;;;;;;;25.92;10.82;;;11.10;90.20;;;;;;9175032;19;20022;-68
2024/02/17 09:17:24;;;;;;;22.02;12.07;;;11.20;90.30;;;;;;9172048;19;20051;-68
2024/02/17 09:20:32;;;;;;;21.92;11.30;;;11.10;90.20;;;;;;9173688;19;20017;-68
2024/02/17 09:23:37;;;;;;;19.50;10.80;;;11.10;90.10;;;;;;9175513;19;20364;-68
2024/02/17 09:26:45;;;;;;;25.17;11.52;;;11.10;90.10;;;;;;9171634;19;20022;-68
2024/02/17 09:29:53;;;;;;;17.58;10.85;;;11.20;90.30;;;;;;9175793;19;20014;-68
2024/02/17 09:33:01;;;;;;;23.63;11.23;;;11.20;90.20;;;;;;9170354;19;20546;-68
2024/02/17 09:36:08;;;;;;;24.88;11.55;;;11.20;90.30;;;;;;9175338;19;20117;-68
2024/02/17 09:39:17;;;;;;;22.25;11.23;;;11.20;90.10;;;;;;9172847;19;20484;-68
2024/02/17 09:42:22;;;;;;;21.98;11.38;;;11.20;90.20;;;;;;9171708;19;20030;-68
2024/02/17 09:45:32;;;;;;;23.90;10.40;;;11.20;90.10;;;;;;9173724;19;20464;-68
2024/02/17 09:48:38;;;;;;;18.20;10.70;;;11.30;90.30;;;;;;9173239;19;20023;-68
2024/02/17 09:51:48;;;;;;;22.92;11.02;;;11.20;90.10;;;;;;9167064;19;20006;-73
2024/02/17 09:54:54;;;;;;;20.63;11.45;;;11.20;90.20;;;;;;9172735;19;20018;-68
2024/02/17 09:58:02;;;;;;;25.70;11.13;;;11.30;90.20;;;;;;9170107;19;20018;-68
2024/02/17 10:01:10;;;;;;;18.25;10.30;;;11.30;90.30;;;;;;9172570;19;20019;-68
2024/02/17 10:04:18;;;;;;;19.48;11.18;;;11.30;90.50;;;;;;9174251;19;20029;-68
2024/02/17 10:07:27;;;;;;;23.33;10.35;;;11.20;90.10;;;;;;9174604;19;20025;-68
2024/02/17 10:10:35;;;;;;;26.33;11.68;;;11.30;90.20;;;;;;9173510;19;20022;-68
2024/02/17 10:13:41;;;;;;;21.52;12.15;;;11.30;90.20;;;;;;9174346;19;20595;-68
2024/02/17 10:16:58;;;;;;;24.63;11.43;;;11.40;90.10;;;;;;9173615;19;20015;-68
2024/02/17 10:20:04;;;;;;;22.50;11.68;;;11.40;90.30;;;;;;9173555;19;20015;-68
2024/02/17 10:23:12;;;;;;;25.90;11.70;;;11.40;90.20;;;;;;9172846;19;20030;-68
2024/02/17 10:26:18;;;;;;;20.13;10.95;;;11.40;90.20;;;;;;9169607;19;20075;-68
2024/02/17 10:29:26;;;;;;;23.02;11.10;;;11.40;90.20;;;;;;9173661;19;20021;-68
2024/02/17 10:32:34;;;;;;;21.73;11.48;;;11.50;90.20;;;;;;9172144;19;20022;-68
2024/02/17 10:35:42;;;;;;;18.50;10.73;;;11.50;90.10;;;;;;9172574;19;20015;-68
2024/02/17 10:38:48;;;;;;;22.80;11.48;;;11.60;90.30;;;;;;9170417;19;20368;-68
2024/02/17 10:41:56;;;;;;;18.50;10.25;;;11.70;90.30;;;;;;9173688;19;20030;-68
2024/02/17 10:45:02;;;;;;;22.58;9.88;;;11.60;90.20;;;;;;9175085;19;20010;-68
2024/02/17 10:48:13;;;;;;;16.88;9.77;;;11.70;90.20;;;;;;9182166;19;20022;-68
2024/02/17 10:51:19;;;;;;;17.25;9.30;;;11.80;90.20;;;;;;9183164;19;20351;-69
2024/02/17 10:54:35;;;;;;;16.73;10.48;;;11.70;90.00;;;;;;9180780;19;20030;-68
2024/02/17 10:57:54;;;;;;;;;;;11.80;90.10;;;;;;9180836;19;20026;-68
2024/02/17 11:01:02;;;;;;;15.55;8.93;;;11.70;90.00;;;;;;9181050;19;19918;-68
2024/02/17 11:04:10;;;;;;;17.40;9.57;;;11.80;90.10;;;;;;9182040;19;20473;-68
2024/02/17 11:07:19;;;;;;;14.88;9.13;;;11.80;90.30;;;;;;9179472;19;20033;-68
2024/02/17 11:10:30;;;;;;;13.00;8.63;;;11.80;90.00;;;;;;9180946;19;20014;-68
2024/02/17 11:13:38;;;;;;;20.80;9.23;;;11.90;90.00;;;;;;9179834;19;20014;-68
2024/02/17 11:16:43;;;;;;;16.25;8.85;;;11.80;90.10;;;;;;9179885;19;20018;-68
2024/02/17 11:20:07;;;;;;;14.38;8.38;;;11.90;90.10;;;;;;9178666;19;20025;-68
2024/02/17 11:23:13;;;;;;;19.63;9.32;;;12.00;90.10;;;;;;9180166;19;20021;-68
2024/02/17 11:26:22;;;;;;;15.90;9.32;;;12.00;90.10;;;;;;9175192;19;20026;-68
2024/02/17 11:29:41;;;;;;;18.58;9.93;;;12.10;90.10;;;;;;9180075;19;20048;-68
2024/02/17 11:32:58;;;;;;;19.83;10.75;;;12.00;90.00;;;;;;9180310;19;20030;-68
2024/02/17 11:36:10;;;;;;;16.58;9.07;;;12.10;90.00;;;;;;9180420;19;20020;-68
2024/02/17 11:39:19;;;;;;;16.02;8.82;;;12.10;90.00;;;;;;9177385;19;20018;-68
2024/02/17 11:42:26;;;;;;;13.48;7.43;;;12.30;90.00;;;;;;9179812;19;20485;-69
2024/02/17 11:45:33;;;;;;;13.95;7.72;;;12.20;90.00;;;;;;9179267;19;20018;-68
2024/02/17 11:48:39;;;;;;;13.88;7.75;;;12.10;89.70;;;;;;9178357;19;20011;-68
2024/02/17 11:51:49;;;;;;;12.70;8.48;;;12.20;89.70;;;;;;9180040;19;20019;-68
2024/02/17 11:54:54;;;;;;;12.50;7.68;;;12.20;89.60;;;;;;9176823;19;20014;-68
2024/02/17 11:58:02;;;;;;;14.90;8.00;;;12.20;89.70;;;;;;9175188;19;20477;-68
2024/02/17 12:01:08;;;;;;;14.10;7.82;;;12.30;89.70;;;;;;9176878;19;20077;-68
2024/02/17 12:04:18;;;;;;;11.93;8.02;;;12.40;90.10;;;;;;9174337;19;20014;-69
2024/02/17 12:07:29;;;;;;;12.52;8.07;;;12.40;89.80;;;;;;9176421;19;20019;-68
2024/02/17 12:10:37;;;;;;;14.13;8.57;;;12.40;89.70;;;;;;9174837;19;20006;-68
2024/02/17 12:13:44;;;;;;;12.70;8.30;;;12.40;90.10;;;;;;9178001;19;20018;-68
2024/02/17 12:16:52;;;;;;;14.35;8.52;;;12.60;89.90;;;;;;9178191;19;20066;-68
2024/02/17 12:19:57;;;;;;;15.70;9.40;;;12.60;89.70;;;;;;9176092;19;20015;-68
2024/02/17 12:23:08;;;;;;;16.50;9.45;;;12.60;89.60;;;;;;9178322;19;20087;-68
2024/02/17 12:26:16;;;;;;;16.77;9.35;;;12.60;89.60;;;;;;9174432;19;20017;-68
2024/02/17 12:29:39;;;;;;;18.63;9.43;;;12.70;89.80;;;;;;9177417;19;20015;-68
2024/02/17 12:32:45;;;;;;;17.75;8.98;;;12.70;90.10;;;;;;9178018;19;20024;-68
2024/02/17 12:35:55;;;;;;;15.90;9.50;;;12.70;89.90;;;;;;9177670;19;20369;-68
2024/02/17 12:39:06;;;;;;;14.15;8.38;;;12.90;89.80;;;;;;9175738;19;20128;-68
2024/02/17 12:42:15;;;;;;;15.80;9.35;;;12.90;89.70;;;;;;9170598;19;20783;-68
2024/02/17 12:45:28;;;;;;;14.60;8.50;;;12.90;89.80;;;;;;9174842;19;20023;-68
2024/02/17 12:48:36;;;;;;;17.08;9.55;;;13.00;89.40;;;;;;9172541;19;20385;-67
2024/02/17 12:51:49;;;;;;;17.30;9.52;;;13.10;89.60;;;;;;9174760;19;20018;-68
2024/02/17 12:55:04;;;;;;;15.60;8.70;;;13.10;89.80;;;;;;9176401;19;20502;-69
2024/02/17 12:58:10;;;;;;;20.02;8.77;;;13.10;89.80;;;;;;9175376;19;20007;-69
2024/02/17 13:01:18;;;;;;;20.30;10.35;;;13.10;89.40;;;;;;9175548;19;20396;-69
2024/02/17 13:04:25;;;;;;;27.20;14.02;;;13.20;89.30;;;;;;9174309;19;20052;-69
2024/02/17 13:07:34;;;;;;;15.55;9.80;;;13.30;89.30;;;;;;9174725;19;20936;-69
2024/02/17 13:10:42;;;;;;;17.60;9.23;;;13.20;89.40;;;;;;9175674;19;20015;-69
2024/02/17 13:13:50;;;;;;;15.30;8.82;;;13.30;89.50;;;;;;9175075;19;20015;-69
2024/02/17 13:16:55;;;;;;;17.48;8.85;;;13.40;89.50;;;;;;9175422;19;20014;-70
2024/02/17 13:20:03;;;;;;;17.73;9.48;;;13.40;89.30;;;;;;9174344;19;20029;-69
2024/02/17 13:23:09;;;;;;;17.27;9.27;;;13.40;89.40;;;;;;9174952;19;20034;-69
2024/02/17 13:26:19;;;;;;;17.38;9.23;;;13.50;89.50;;;;;;9170207;19;20025;-69
2024/02/17 13:29:25;;;;;;;18.15;9.00;;;13.40;88.80;;;;;;9174974;19;20468;-69
2024/02/17 13:32:33;;;;;;;15.75;9.38;;;13.50;89.20;;;;;;9174633;19;20484;-69
2024/02/17 13:35:40;;;;;;;19.20;9.73;;;13.50;89.00;;;;;;9174665;19;20035;-69
2024/02/17 13:38:48;;;;;;;21.17;11.07;;;13.50;89.70;;;;;;9174277;19;20022;-69
2024/02/17 13:41:56;;;;;;;18.58;8.98;;;13.50;88.90;;;;;;9174500;19;20464;-70
2024/02/17 13:45:04;;;;;;;23.98;9.52;;;13.60;88.50;;;;;;9174210;19;20361;-71
2024/02/17 13:48:11;;;;;;;18.27;9.88;;;13.50;88.50;;;;;;9173173;19;20027;-70
2024/02/17 13:51:18;;;;;;;19.58;9.32;;;13.60;88.40;;;;;;9173952;19;20123;-70
2024/02/17 13:54:25;;;;;;;19.27;9.82;;;13.60;88.60;;;;;;9174714;19;20022;-70
2024/02/17 13:57:35;;;;;;;16.42;9.73;;;13.70;88.80;;;;;;9176192;19;20015;-69
2024/02/17 14:00:42;;;;;;;20.58;9.68;;;13.60;88.30;;;;;;9174331;19;20380;-69
2024/02/17 14:03:50;;;;;;;17.75;9.90;;;13.60;88.30;;;;;;9174464;19;20015;-69
2024/02/17 14:06:56;;;;;;;23.65;10.68;;;13.60;88.30;;;;;;9174258;19;20047;-70
2024/02/17 14:10:05;;;;;;;25.38;10.77;;;13.60;88.30;;;;;;9174479;19;20021;-69
2024/02/17 14:13:16;;;;;;;20.35;10.90;;;13.70;88.40;;;;;;9173794;19;20018;-69
2024/02/17 14:16:23;;;;;;;19.55;10.13;;;13.70;88.40;;;;;;9173731;19;20372;-69
2024/02/17 14:19:33;;;;;;;20.60;9.95;;;13.80;88.60;;;;;;9174727;19;20022;-69
2024/02/17 14:22:41;;;;;;;19.38;10.43;;;13.70;89.00;;;;;;9182453;19;20014;-69
2024/02/17 14:25:48;;;;;;;18.40;10.65;;;13.80;88.80;;;;;;9176763;19;20013;-69
2024/02/17 14:28:58;;;;;;;20.55;10.90;;;13.80;88.40;;;;;;9183225;19;20018;-69
2024/02/17 14:32:04;;;;;;;20.52;10.25;;;13.90;88.30;;;;;;9180544;19;20035;-69
2024/02/17 14:35:11;;;;;;;19.17;9.73;;;13.80;88.30;;;;;;9182236;19;20015;-69
2024/02/17 14:38:17;;;;;;;17.48;9.38;;;13.80;88.60;;;;;;9181424;19;20026;-69
2024/02/17 14:41:29;;;;;;;19.80;10.05;;;13.80;87.90;;;;;;9178646;19;20381;-69
2024/02/17 14:44:38;;;;;;;18.20;10.30;;;13.70;87.50;;;;;;9179066;19;20014;-70
2024/02/17 14:47:46;;;;;;;19.23;9.50;;;13.80;88.10;;;;;;9182962;19;20611;-70
2024/02/17 14:50:52;;;;;;;14.73;8.63;;;13.90;88.20;;;;;;9182036;19;20367;-70
2024/02/17 14:53:59;;;;;;;24.55;11.32;;;13.80;87.80;;;;;;9180638;19;20124;-70
2024/02/17 14:57:05;;;;;;;28.27;11.40;;;13.80;88.00;;;;;;9180794;19;20357;-70
2024/02/17 15:00:17;;;;;;;22.65;10.27;;;13.80;87.70;;;;;;9179136;19;20014;-70
2024/02/17 15:03:23;;;;;;;18.00;9.13;;;13.70;87.60;;;;;;9182225;19;20038;-70
2024/02/17 15:06:31;;;;;;;18.13;10.07;;;13.70;87.60;;;;;;9181712;19;20018;-70
2024/02/17 15:09:36;;;;;;;24.50;10.20;;;13.80;88.00;;;;;;9181137;19;20014;-71
2024/02/17 15:12:44;;;;;;;18.27;10.25;;;13.70;87.70;;;;;;9179474;19;20010;-70
2024/02/17 15:15:52;;;;;;;21.30;10.40;;;13.80;87.70;;;;;;9181194;19;20361;-71
2024/02/17 15:19:00;;;;;;;23.08;12.63;;;13.70;87.70;;;;;;9176758;19;20037;-70
2024/02/17 15:22:06;;;;;;;26.08;12.00;;;13.70;87.80;;;;;;9175210;19;20015;-70
2024/02/17 15:25:14;;;;;;;24.95;12.15;;;13.70;87.70;;;;;;9176197;19;20365;-70
2024/02/17 15:28:21;;;;;;;23.50;11.18;;;13.70;87.70;;;;;;9180009;19;20030;-70
2024/02/17 15:31:32;;;;;;;22.80;10.90;;;13.80;88.00;;;;;;9178558;19;20018;-70
2024/02/17 15:34:38;;;;;;;20.20;10.98;;;13.70;87.80;;;;;;9179373;19;20484;-71
2024/02/17 15:37:46;;;;;;;21.10;11.27;;;13.70;87.90;;;;;;9179772;19;20014;-70
2024/02/17 15:40:53;;;;;;;29.15;11.27;;;13.70;87.80;;;;;;9173233;19;20030;-70
2024/02/17 15:44:00;;;;;;;25.00;11.93;;;13.60;87.60;;;;;;9178231;19;20011;-70
2024/02/17 15:47:11;;;;;;;18.67;10.57;;;13.60;88.10;;;;;;9175772;19;20015;-70
2024/02/17 15:50:19;;;;;;;21.42;11.43;;;13.60;87.80;;;;;;9176499;19;20018;-70
2024/02/17 15:53:27;;;;;;;24.67;11.48;;;13.60;88.00;;;;;;9176737;19;20019;-71
2024/02/17 15:56:35;;;;;;;23.63;11.18;;;13.70;88.10;;;;;;9175484;19;20456;-71